createdAt,value
2023-02-15T00:01:32.598Z,0.80
2023-02-15T00:04:02.725Z,0.80
2023-02-15T00:06:31.727Z,0.80
2023-02-15T00:09:00.980Z,0.80
2023-02-15T00:11:41.677Z,0.80
2023-02-15T00:14:16.144Z,0.80
2023-02-15T00:16:46.407Z,0.80
2023-02-15T00:19:18.276Z,0.80
2023-02-15T00:21:48.579Z,0.80
2023-02-15T00:24:19.595Z,0.80
2023-02-15T00:26:49.226Z,0.90
2023-02-15T00:29:20.338Z,0.80
2023-02-15T00:31:49.811Z,0.80
2023-02-15T00:34:26.689Z,0.77
2023-02-15T00:36:55.823Z,0.90
2023-02-15T00:39:25.510Z,0.82
2023-02-15T00:41:54.332Z,0.80
2023-02-15T00:44:23.162Z,0.80
2023-02-15T00:46:52.048Z,0.80
2023-02-15T00:49:22.910Z,0.85
2023-02-15T00:51:51.670Z,0.80
2023-02-15T00:54:20.612Z,0.82
2023-02-15T00:56:49.367Z,0.80
2023-02-15T00:59:18.215Z,0.90
2023-02-15T01:01:49.287Z,0.80
2023-02-15T01:04:18.361Z,0.80
2023-02-15T01:06:47.131Z,0.80
2023-02-15T01:09:16.063Z,0.80
2023-02-15T01:11:44.849Z,0.80
2023-02-15T01:14:14.817Z,0.80
2023-02-15T01:16:44.093Z,0.80
2023-02-15T01:19:12.948Z,0.80
2023-02-15T01:21:42.259Z,0.80
2023-02-15T01:24:15.706Z,0.80
2023-02-15T01:26:44.596Z,0.80
2023-02-15T01:29:13.409Z,0.80
2023-02-15T01:31:42.324Z,0.80
2023-02-15T01:34:11.264Z,0.80
2023-02-15T01:36:41.026Z,0.80
2023-02-15T01:39:11.146Z,0.80
2023-02-15T01:41:40.027Z,0.80
2023-02-15T01:44:46.414Z,0.80
2023-02-15T01:47:22.646Z,0.75
2023-02-15T01:50:00.108Z,0.80
2023-02-15T01:52:29.264Z,0.80
2023-02-15T01:54:58.617Z,0.80
2023-02-15T01:57:30.282Z,0.80
2023-02-15T02:00:03.124Z,0.80
2023-02-15T02:02:45.742Z,0.80
2023-02-15T02:05:14.766Z,0.70
2023-02-15T02:07:48.921Z,0.80
2023-02-15T02:10:20.723Z,0.80
2023-02-15T02:12:51.970Z,0.80
2023-02-15T02:15:31.010Z,0.80
2023-02-15T02:18:26.059Z,0.75
2023-02-15T02:21:03.738Z,0.70
2023-02-15T02:23:42.176Z,0.80
2023-02-15T02:26:58.658Z,0.80
2023-02-15T02:29:46.148Z,0.80
2023-02-15T02:33:01.301Z,0.70
2023-02-15T02:35:53.141Z,0.85
2023-02-15T02:38:50.340Z,0.80
2023-02-15T02:41:51.524Z,0.80
2023-02-15T02:44:39.442Z,0.80
2023-02-15T02:47:15.572Z,0.80
2023-02-15T02:49:45.392Z,0.80
2023-02-15T02:52:35.849Z,0.70
2023-02-15T02:55:26.969Z,0.70
2023-02-15T02:57:56.388Z,0.80
2023-02-15T03:00:27.913Z,0.70
2023-02-15T03:03:07.435Z,0.70
2023-02-15T03:05:41.123Z,0.70
2023-02-15T03:08:11.502Z,0.70
2023-02-15T03:10:42.281Z,0.70
2023-02-15T03:13:11.248Z,0.70
2023-02-15T03:16:02.327Z,0.70
2023-02-15T03:18:37.482Z,0.70
2023-02-15T03:21:09.955Z,0.80
2023-02-15T03:23:40.859Z,0.70
2023-02-15T03:26:10.244Z,0.70
2023-02-15T03:28:49.746Z,0.70
2023-02-15T03:31:22.722Z,0.70
2023-02-15T03:34:03.898Z,0.70
2023-02-15T03:36:50.890Z,0.70
2023-02-15T03:39:48.316Z,0.70
2023-02-15T03:42:34.533Z,0.70
2023-02-15T03:45:13.394Z,0.80
2023-02-15T03:47:48.579Z,0.70
2023-02-15T03:50:44.882Z,0.70
2023-02-15T03:55:54.741Z,0.70
2023-02-15T03:58:42.045Z,0.70
2023-02-15T04:01:59.151Z,0.70
2023-02-15T04:04:40.693Z,0.70
2023-02-15T04:07:10.487Z,0.70
2023-02-15T04:09:57.719Z,0.70
2023-02-15T04:12:26.602Z,0.70
2023-02-15T04:15:14.065Z,0.70
2023-02-15T04:17:42.976Z,0.70
2023-02-15T04:20:30.474Z,0.75
2023-02-15T04:23:17.819Z,0.70
2023-02-15T04:25:46.682Z,0.80
2023-02-15T04:28:15.452Z,0.70
2023-02-15T04:30:44.275Z,0.70
2023-02-15T04:33:12.974Z,0.70
2023-02-15T04:35:41.816Z,0.70
2023-02-15T04:38:11.824Z,0.70
2023-02-15T04:40:40.645Z,0.70
2023-02-15T04:43:09.454Z,0.70
2023-02-15T04:45:38.264Z,0.70
2023-02-15T04:48:07.137Z,0.70
2023-02-15T04:50:35.956Z,0.70
2023-02-15T04:53:04.905Z,0.70
2023-02-15T04:55:33.660Z,0.70
2023-02-15T04:58:02.492Z,0.70
2023-02-15T05:00:32.169Z,0.70
2023-02-15T05:03:01.253Z,0.70
2023-02-15T05:05:30.200Z,0.63
2023-02-15T05:07:59.022Z,0.70
2023-02-15T05:10:27.863Z,0.70
2023-02-15T05:12:56.664Z,0.60
2023-02-15T05:15:25.464Z,0.60
2023-02-15T05:17:54.226Z,0.70
2023-02-15T05:20:23.214Z,0.70
2023-02-15T05:22:56.196Z,0.70
2023-02-15T05:25:43.912Z,0.70
2023-02-15T05:28:22.020Z,0.70
2023-02-15T05:31:18.507Z,0.70
2023-02-15T05:33:47.463Z,0.70
2023-02-15T05:36:16.285Z,0.70
2023-02-15T05:38:45.292Z,0.70
2023-02-15T05:41:14.233Z,0.70
2023-02-15T05:43:44.230Z,0.70
2023-02-15T05:46:14.306Z,0.70
2023-02-15T05:48:43.230Z,0.70
2023-02-15T05:51:18.486Z,0.70
2023-02-15T05:53:47.552Z,0.70
2023-02-15T05:56:16.377Z,0.70
2023-02-15T05:58:45.194Z,0.70
2023-02-15T06:01:20.470Z,0.70
2023-02-15T06:03:49.692Z,0.60
2023-02-15T06:06:18.636Z,0.65
2023-02-15T06:08:48.002Z,0.70
2023-02-15T06:11:17.130Z,0.70
2023-02-15T06:13:45.927Z,0.70
2023-02-15T06:16:14.684Z,0.70
2023-02-15T06:18:43.602Z,0.60
2023-02-15T06:21:12.634Z,0.60
2023-02-15T06:23:41.704Z,0.60
2023-02-15T06:26:10.554Z,0.60
2023-02-15T06:28:39.431Z,0.55
2023-02-15T06:31:08.408Z,0.60
2023-02-15T06:33:37.327Z,0.60
2023-02-15T06:36:06.423Z,0.60
2023-02-15T06:38:35.319Z,0.60
2023-02-15T06:41:04.224Z,0.70
2023-02-15T06:43:33.067Z,0.60
2023-02-15T06:46:02.891Z,0.50
2023-02-15T06:48:31.949Z,0.50
2023-02-15T06:51:00.837Z,0.60
2023-02-15T06:53:30.038Z,0.50
2023-02-15T06:56:08.223Z,0.60
2023-02-15T06:58:47.564Z,0.60
2023-02-15T07:01:17.047Z,0.60
2023-02-15T07:03:46.246Z,0.60
2023-02-15T07:06:15.171Z,0.57
2023-02-15T07:08:43.983Z,0.60
2023-02-15T07:11:31.435Z,0.70
2023-02-15T07:14:00.267Z,0.60
2023-02-15T07:16:29.660Z,0.60
2023-02-15T07:18:58.589Z,0.60
2023-02-15T07:21:27.616Z,0.60
2023-02-15T07:23:59.393Z,0.60
2023-02-15T07:26:28.703Z,0.70
2023-02-15T07:28:57.492Z,0.60
2023-02-15T07:31:26.354Z,0.60
2023-02-15T07:33:55.358Z,0.60
2023-02-15T07:36:24.487Z,0.60
2023-02-15T07:38:53.243Z,0.60
2023-02-15T07:41:22.276Z,0.60
2023-02-15T07:43:51.058Z,0.50
2023-02-15T07:46:20.968Z,0.60
2023-02-15T07:48:49.889Z,0.50
2023-02-15T07:51:18.719Z,0.60
2023-02-15T07:53:48.742Z,0.50
2023-02-15T07:56:17.604Z,0.60
2023-02-15T07:58:52.458Z,0.50
2023-02-15T08:01:25.058Z,0.60
2023-02-15T08:03:55.940Z,0.60
2023-02-15T08:06:27.720Z,0.60
2023-02-15T08:08:58.126Z,0.60
2023-02-15T08:11:35.002Z,0.70
2023-02-15T08:14:17.423Z,0.70
2023-02-15T08:16:49.256Z,0.60
2023-02-15T08:19:27.253Z,0.63
2023-02-15T08:22:05.673Z,0.60
2023-02-15T08:24:38.894Z,0.60
2023-02-15T08:27:10.471Z,0.60
2023-02-15T08:29:40.811Z,0.60
2023-02-15T08:32:12.173Z,0.60
2023-02-15T08:34:43.369Z,0.60
2023-02-15T08:37:12.392Z,0.60
2023-02-15T08:39:41.317Z,0.60
2023-02-15T08:42:10.188Z,0.65
2023-02-15T08:44:38.976Z,0.68
2023-02-15T08:47:07.823Z,0.70
2023-02-15T08:49:36.667Z,0.70
2023-02-15T08:52:05.826Z,0.70
2023-02-15T08:54:34.611Z,0.70
2023-02-15T08:57:03.638Z,0.70
2023-02-15T08:59:32.575Z,0.70
2023-02-15T09:02:04.603Z,0.70
2023-02-15T09:04:33.660Z,0.70
2023-02-15T09:07:02.470Z,0.70
2023-02-15T09:09:32.720Z,0.70
2023-02-15T09:12:01.716Z,0.70
2023-02-15T09:14:30.674Z,0.70
2023-02-15T09:16:59.583Z,0.70
2023-02-15T09:19:28.717Z,0.70
2023-02-15T09:21:57.597Z,0.70
2023-02-15T09:24:26.476Z,0.70
2023-02-15T09:26:55.329Z,0.70
2023-02-15T09:29:24.356Z,0.70
2023-02-15T09:31:55.085Z,0.70
2023-02-15T09:34:24.405Z,0.70
2023-02-15T09:36:53.779Z,0.70
2023-02-15T09:39:25.237Z,0.68
2023-02-15T09:42:29.334Z,0.70
2023-02-15T09:45:18.221Z,0.80
2023-02-15T09:48:05.228Z,0.70
2023-02-15T09:51:02.222Z,0.80
2023-02-15T09:54:09.864Z,0.80
2023-02-15T09:57:11.703Z,0.70
2023-02-15T10:00:01.155Z,0.70
2023-02-15T10:02:32.838Z,0.70
2023-02-15T10:05:33.688Z,0.80
2023-02-15T10:08:39.724Z,0.80
2023-02-15T10:11:40.760Z,0.70
2023-02-15T10:14:24.894Z,0.70
2023-02-15T10:17:24.313Z,0.70
2023-02-15T10:19:53.132Z,0.80
2023-02-15T10:22:30.892Z,0.70
2023-02-15T10:25:32.916Z,0.80
2023-02-15T10:28:07.947Z,0.75
2023-02-15T10:30:50.750Z,0.70
2023-02-15T10:33:25.523Z,0.70
2023-02-15T10:36:25.674Z,0.70
2023-02-15T10:39:32.940Z,0.75
2023-02-15T10:42:28.183Z,0.80
2023-02-15T10:45:09.301Z,0.80
2023-02-15T10:48:02.591Z,0.80
2023-02-15T10:50:53.259Z,0.80
2023-02-15T10:53:40.753Z,0.80
2023-02-15T10:56:38.586Z,0.80
2023-02-15T10:59:17.474Z,0.80
2023-02-15T11:01:52.757Z,0.80
2023-02-15T11:04:34.081Z,0.80
2023-02-15T11:07:10.020Z,0.80
2023-02-15T11:09:48.460Z,0.80
2023-02-15T11:12:22.871Z,0.80
2023-02-15T11:15:17.251Z,0.80
2023-02-15T11:17:52.278Z,0.80
2023-02-15T11:20:31.561Z,0.80
2023-02-15T11:23:03.033Z,0.80
2023-02-15T11:25:35.564Z,0.75
2023-02-15T11:28:15.623Z,0.80
2023-02-15T11:30:56.188Z,0.70
2023-02-15T11:33:41.914Z,0.80
2023-02-15T11:36:34.991Z,0.80
2023-02-15T11:39:17.859Z,0.80
2023-02-15T11:41:53.531Z,0.80
2023-02-15T11:44:54.125Z,0.80
2023-02-15T11:47:22.927Z,0.80
2023-02-15T11:49:51.892Z,0.80
2023-02-15T11:52:21.099Z,0.80
2023-02-15T11:54:53.271Z,0.80
2023-02-15T11:57:33.929Z,0.70
2023-02-15T12:00:37.947Z,0.80
2023-02-15T12:03:34.738Z,0.80
2023-02-15T12:06:06.471Z,0.80
2023-02-15T12:08:47.901Z,0.80
2023-02-15T12:11:27.568Z,0.80
2023-02-15T12:14:02.509Z,0.80
2023-02-15T12:16:44.494Z,0.70
2023-02-15T12:19:34.600Z,0.80
2023-02-15T12:22:05.517Z,0.80
2023-02-15T12:24:39.750Z,0.80
2023-02-15T12:27:18.751Z,0.80
2023-02-15T12:29:54.455Z,0.70
2023-02-15T12:32:36.002Z,0.80
2023-02-15T12:35:29.464Z,0.80
2023-02-15T12:38:27.171Z,0.80
2023-02-15T12:41:02.822Z,0.80
2023-02-15T12:43:39.322Z,0.80
2023-02-15T12:46:24.646Z,0.80
2023-02-15T12:49:26.135Z,0.80
2023-02-15T12:52:01.114Z,0.80
2023-02-15T12:54:33.533Z,0.80
2023-02-15T12:57:24.819Z,0.80
2023-02-15T12:59:57.039Z,0.80
2023-02-15T13:02:31.926Z,0.80
2023-02-15T13:05:10.122Z,0.70
2023-02-15T13:07:39.245Z,0.80
2023-02-15T13:10:24.550Z,0.70
2023-02-15T13:12:55.850Z,0.80
2023-02-15T13:15:45.690Z,0.80
2023-02-15T13:18:20.385Z,0.70
2023-02-15T13:20:51.589Z,0.80
2023-02-15T13:23:29.893Z,0.80
2023-02-15T13:26:04.118Z,0.80
2023-02-15T13:28:47.780Z,0.80
2023-02-15T13:31:22.117Z,0.80
2023-02-15T13:34:00.386Z,0.80
2023-02-15T13:36:43.092Z,0.80
2023-02-15T13:39:35.881Z,0.80
2023-02-15T13:42:22.683Z,0.70
2023-02-15T13:44:58.504Z,0.70
2023-02-15T13:47:33.252Z,0.80
2023-02-15T13:50:20.400Z,0.80
2023-02-15T13:53:00.880Z,0.80
2023-02-15T13:55:52.601Z,0.80
2023-02-15T13:58:39.731Z,0.80
2023-02-15T14:01:20.941Z,0.80
2023-02-15T14:04:02.269Z,0.80
2023-02-15T14:07:00.231Z,0.85
2023-02-15T14:10:06.201Z,0.80
2023-02-15T14:12:57.043Z,0.80
2023-02-15T14:15:56.816Z,0.80
2023-02-15T14:19:06.851Z,0.80
2023-02-15T14:21:49.293Z,0.77
2023-02-15T14:24:31.876Z,0.82
2023-02-15T14:27:12.792Z,0.80
2023-02-15T14:29:50.533Z,0.80
2023-02-15T14:32:27.744Z,0.80
2023-02-15T14:35:05.530Z,0.90
2023-02-15T14:37:46.407Z,0.80
2023-02-15T14:41:03.618Z,0.80
2023-02-15T14:43:39.146Z,0.80
2023-02-15T14:46:27.836Z,0.80
2023-02-15T14:49:08.815Z,0.90
2023-02-15T14:51:49.811Z,0.80
2023-02-15T14:54:21.468Z,0.80
2023-02-15T14:57:02.569Z,0.80
2023-02-15T14:59:40.884Z,0.80
2023-02-15T15:02:10.299Z,0.80
2023-02-15T15:05:03.876Z,1.00
2023-02-15T15:07:50.131Z,0.80
2023-02-15T15:10:19.315Z,0.80
2023-02-15T15:12:50.414Z,0.80
2023-02-15T15:15:28.492Z,1.00
2023-02-15T15:18:01.747Z,0.80
2023-02-15T15:20:45.950Z,1.00
2023-02-15T15:23:17.773Z,1.00
2023-02-15T15:25:58.239Z,0.80
2023-02-15T15:28:36.170Z,0.85
2023-02-15T15:31:19.414Z,0.80
2023-02-15T15:34:03.379Z,0.90
2023-02-15T15:36:54.901Z,0.80
2023-02-15T15:39:36.260Z,0.90
2023-02-15T15:42:33.146Z,0.90
2023-02-15T15:45:18.743Z,0.80
2023-02-15T15:48:06.632Z,0.80
2023-02-15T15:50:36.432Z,0.80
2023-02-15T15:53:06.242Z,0.80
2023-02-15T15:55:36.259Z,0.80
2023-02-15T15:58:08.913Z,0.90
2023-02-15T16:00:39.053Z,0.80
2023-02-15T16:03:22.474Z,0.80
2023-02-15T16:05:57.804Z,0.80
2023-02-15T16:08:36.206Z,0.80
2023-02-15T16:11:31.284Z,0.80
2023-02-15T16:14:00.252Z,0.90
2023-02-15T16:16:31.267Z,0.80
2023-02-15T16:19:01.215Z,0.80
2023-02-15T16:21:37.527Z,0.80
2023-02-15T16:24:43.237Z,0.90
2023-02-15T16:29:46.609Z,0.80
2023-02-15T16:32:18.937Z,0.80
2023-02-15T16:35:02.048Z,0.80
2023-02-15T16:37:36.624Z,0.80
2023-02-15T16:40:06.278Z,0.80
2023-02-15T16:42:36.548Z,0.80
2023-02-15T16:45:18.675Z,0.80
2023-02-15T16:47:51.907Z,0.80
2023-02-15T16:50:33.758Z,0.80
2023-02-15T16:53:03.905Z,0.80
2023-02-15T16:55:44.353Z,0.80
2023-02-15T16:58:19.240Z,0.80
2023-02-15T17:00:48.893Z,1.00
2023-02-15T17:03:19.546Z,0.80
2023-02-15T17:05:51.088Z,0.80
2023-02-15T17:08:43.366Z,0.80
2023-02-15T17:11:14.538Z,0.80
2023-02-15T17:14:10.342Z,0.80
2023-02-15T17:16:51.053Z,0.98
2023-02-15T17:19:29.256Z,0.80
2023-02-15T17:22:02.256Z,0.80
2023-02-15T17:24:44.414Z,0.80
2023-02-15T17:27:33.454Z,0.80
2023-02-15T17:30:11.233Z,0.80
2023-02-15T17:32:53.687Z,0.80
2023-02-15T17:35:28.730Z,0.80
2023-02-15T17:38:21.712Z,0.80
2023-02-15T17:40:50.555Z,0.80
2023-02-15T17:43:19.371Z,0.80
2023-02-15T17:45:53.506Z,0.80
2023-02-15T17:48:32.385Z,0.80
2023-02-15T17:51:07.038Z,0.80
2023-02-15T17:53:35.867Z,0.80
2023-02-15T17:56:13.814Z,0.90
2023-02-15T17:58:42.859Z,0.80
2023-02-15T18:01:39.894Z,0.80
2023-02-15T18:04:33.960Z,0.80
2023-02-15T18:07:21.338Z,0.80
2023-02-15T18:10:08.728Z,0.80
2023-02-15T18:12:39.305Z,0.80
2023-02-15T18:15:11.534Z,0.80
2023-02-15T18:17:48.434Z,0.80
2023-02-15T18:20:19.273Z,0.88
2023-02-15T18:22:48.568Z,0.80
2023-02-15T18:25:20.302Z,0.80
2023-02-15T18:27:49.231Z,0.88
2023-02-15T18:30:24.354Z,0.80
2023-02-15T18:32:57.345Z,0.80
2023-02-15T18:35:31.056Z,0.80
2023-02-15T18:38:02.139Z,0.90
2023-02-15T18:40:31.095Z,0.88
2023-02-15T18:43:00.037Z,0.98
2023-02-15T18:45:33.580Z,0.90
2023-02-15T18:48:02.688Z,0.95
2023-02-15T18:50:34.958Z,0.82
2023-02-15T18:53:07.180Z,0.70
2023-02-15T18:55:36.162Z,0.90
2023-02-15T18:58:04.994Z,0.90
2023-02-15T19:00:35.882Z,0.80
2023-02-15T19:03:05.338Z,0.80
2023-02-15T19:05:34.737Z,0.80
2023-02-15T19:08:04.809Z,1.00
2023-02-15T19:10:34.615Z,0.85
2023-02-15T19:13:03.525Z,0.80
2023-02-15T19:15:32.391Z,0.80
2023-02-15T19:18:01.365Z,0.80
2023-02-15T19:20:49.139Z,0.90
2023-02-15T19:23:24.303Z,0.90
2023-02-15T19:25:56.919Z,0.90
2023-02-15T19:28:32.973Z,0.80
2023-02-15T19:31:02.015Z,1.00
2023-02-15T19:33:31.078Z,0.80
2023-02-15T19:36:00.764Z,0.80
2023-02-15T19:38:38.106Z,0.80
2023-02-15T19:41:10.023Z,1.00
2023-02-15T19:43:39.318Z,0.80
2023-02-15T19:46:08.126Z,0.82
2023-02-15T19:48:36.927Z,1.00
2023-02-15T19:51:05.951Z,0.80
2023-02-15T19:53:34.811Z,0.80
2023-02-15T19:56:03.947Z,0.88
2023-02-15T19:58:34.257Z,0.80
2023-02-15T20:01:03.825Z,0.80
2023-02-15T20:03:33.302Z,0.80
2023-02-15T20:06:03.051Z,0.80
2023-02-15T20:08:32.739Z,0.80
2023-02-15T20:11:01.881Z,0.80
2023-02-15T20:13:30.942Z,0.80
2023-02-15T20:16:02.176Z,1.00
2023-02-15T20:18:31.031Z,0.80
2023-02-15T20:21:01.112Z,0.80
2023-02-15T20:23:36.264Z,0.80
2023-02-15T20:26:19.718Z,0.80
2023-02-15T20:28:49.306Z,0.95
2023-02-15T20:31:20.926Z,0.90
2023-02-15T20:33:50.278Z,0.80
2023-02-15T20:36:24.156Z,0.80
2023-02-15T20:38:53.016Z,0.80
2023-02-15T20:41:37.949Z,0.80
2023-02-15T20:44:23.020Z,0.85
2023-02-15T20:46:55.460Z,0.80
2023-02-15T20:49:25.756Z,0.80
2023-02-15T20:51:56.378Z,0.80
2023-02-15T20:54:31.646Z,0.90
2023-02-15T20:57:00.674Z,0.80
2023-02-15T20:59:32.628Z,0.80
2023-02-15T21:02:31.345Z,0.80
2023-02-15T21:05:02.124Z,1.00
2023-02-15T21:07:32.246Z,0.80
2023-02-15T21:10:01.019Z,0.85
2023-02-15T21:12:32.859Z,0.98
2023-02-15T21:15:01.694Z,0.80
2023-02-15T21:17:32.451Z,0.80
2023-02-15T21:20:01.308Z,0.90
2023-02-15T21:22:37.868Z,0.85
2023-02-15T21:25:06.818Z,0.80
2023-02-15T21:27:35.648Z,0.80
2023-02-15T21:30:07.218Z,0.80
2023-02-15T21:32:36.274Z,0.80
2023-02-15T21:35:06.167Z,0.80
2023-02-15T21:37:37.147Z,0.80
2023-02-15T21:40:15.422Z,0.80
2023-02-15T21:43:02.650Z,0.85
2023-02-15T21:45:49.871Z,0.85
2023-02-15T21:48:18.780Z,0.80
2023-02-15T21:51:06.279Z,0.80
2023-02-15T21:53:38.231Z,0.90
2023-02-15T21:56:09.877Z,0.80
2023-02-15T21:58:38.766Z,0.80
2023-02-15T22:01:17.773Z,0.80
2023-02-15T22:03:46.910Z,0.80
2023-02-15T22:06:15.880Z,0.80
2023-02-15T22:08:45.951Z,0.80
2023-02-15T22:11:25.282Z,0.80
2023-02-15T22:13:54.124Z,0.80
2023-02-15T22:16:23.775Z,0.80
2023-02-15T22:18:52.669Z,0.80
2023-02-15T22:21:21.595Z,0.77
2023-02-15T22:23:50.369Z,0.80
2023-02-15T22:26:24.414Z,0.80
2023-02-15T22:28:53.410Z,0.70
2023-02-15T22:31:23.914Z,0.80
2023-02-15T22:33:52.974Z,0.80
2023-02-15T22:36:28.772Z,0.80
2023-02-15T22:38:58.146Z,1.00
2023-02-15T22:41:30.603Z,0.80
2023-02-15T22:44:00.001Z,0.70
2023-02-15T22:46:29.371Z,0.80
2023-02-15T22:48:58.259Z,0.80
2023-02-15T22:51:27.311Z,0.80
2023-02-15T22:53:56.153Z,0.80
2023-02-15T22:56:52.709Z,0.80
2023-02-15T22:59:27.133Z,0.80
2023-02-15T23:02:00.139Z,0.80
2023-02-15T23:04:30.924Z,0.80
2023-02-15T23:07:01.603Z,0.80
2023-02-15T23:09:30.469Z,0.80
2023-02-15T23:11:59.409Z,0.80
2023-02-15T23:14:46.301Z,0.80
2023-02-15T23:17:15.145Z,0.80
2023-02-15T23:19:44.028Z,0.80
2023-02-15T23:22:17.980Z,0.80
2023-02-15T23:24:52.452Z,0.80
2023-02-15T23:27:39.736Z,0.80
2023-02-15T23:30:14.588Z,0.80
2023-02-15T23:32:43.507Z,0.80
2023-02-15T23:35:18.015Z,0.80
2023-02-15T23:37:46.928Z,0.80
2023-02-15T23:40:35.864Z,0.80
2023-02-15T23:43:07.235Z,0.80
2023-02-15T23:45:39.714Z,0.90
2023-02-15T23:48:31.072Z,0.80
2023-02-15T23:51:00.738Z,0.80
2023-02-15T23:53:30.047Z,0.80
2023-02-15T23:55:59.457Z,0.80
2023-02-15T23:58:36.213Z,0.90
